sensor_id;sensor_type;location;lat;lon;timestamp;pressure;altitude;pressure_sealevel;temperature;humidity
28626;BME280;18905;42.668;23.364;2024-03-06T00:02:08;94917.69;;;5.64;75.65
28626;BME280;18905;42.668;23.364;2024-03-06T00:04:34;94911.09;;;5.53;75.75
28626;BME280;18905;42.668;23.364;2024-03-06T00:07:00;94910.81;;;5.65;76.12
28626;BME280;18905;42.668;23.364;2024-03-06T00:09:26;94917.84;;;5.24;77.11
28626;BME280;18905;42.668;23.364;2024-03-06T00:11:55;94907.66;;;5.24;77.44
28626;BME280;18905;42.668;23.364;2024-03-06T00:14:21;94910.44;;;5.23;77.52
28626;BME280;18905;42.668;23.364;2024-03-06T00:16:49;94910.66;;;5.36;76.23
28626;BME280;18905;42.668;23.364;2024-03-06T00:19:18;94908.59;;;5.43;76.63
28626;BME280;18905;42.668;23.364;2024-03-06T00:21:44;94905.16;;;5.68;75.88
28626;BME280;18905;42.668;23.364;2024-03-06T00:24:12;94909.03;;;5.60;75.75
28626;BME280;18905;42.668;23.364;2024-03-06T00:26:42;94912.91;;;5.53;76.12
28626;BME280;18905;42.668;23.364;2024-03-06T00:29:08;94907.00;;;5.57;75.43
28626;BME280;18905;42.668;23.364;2024-03-06T00:31:34;94908.38;;;5.35;76.37
28626;BME280;18905;42.668;23.364;2024-03-06T00:33:59;94907.03;;;5.47;75.61
28626;BME280;18905;42.668;23.364;2024-03-06T00:36:25;94901.97;;;5.32;77.04
28626;BME280;18905;42.668;23.364;2024-03-06T00:38:50;94912.19;;;5.37;76.53
28626;BME280;18905;42.668;23.364;2024-03-06T00:41:16;94917.03;;;5.34;77.20
28626;BME280;18905;42.668;23.364;2024-03-06T00:43:41;94919.75;;;5.62;75.42
28626;BME280;18905;42.668;23.364;2024-03-06T00:46:07;94904.22;;;5.54;75.83
28626;BME280;18905;42.668;23.364;2024-03-06T00:48:32;94905.41;;;5.66;75.81
28626;BME280;18905;42.668;23.364;2024-03-06T00:50:58;94910.22;;;5.83;74.68
28626;BME280;18905;42.668;23.364;2024-03-06T00:53:23;94912.53;;;5.74;75.26
28626;BME280;18905;42.668;23.364;2024-03-06T00:55:49;94913.78;;;5.82;74.65
28626;BME280;18905;42.668;23.364;2024-03-06T00:58:14;94918.88;;;5.92;73.79
28626;BME280;18905;42.668;23.364;2024-03-06T01:00:40;94911.69;;;5.99;74.16
28626;BME280;18905;42.668;23.364;2024-03-06T01:03:05;94916.81;;;5.94;74.20
28626;BME280;18905;42.668;23.364;2024-03-06T01:05:31;94904.56;;;5.86;73.57
28626;BME280;18905;42.668;23.364;2024-03-06T01:07:56;94906.63;;;5.84;73.83
28626;BME280;18905;42.668;23.364;2024-03-06T01:10:22;94912.22;;;5.91;74.61
28626;BME280;18905;42.668;23.364;2024-03-06T01:12:48;94920.38;;;5.93;73.49
28626;BME280;18905;42.668;23.364;2024-03-06T01:15:13;94928.56;;;5.95;73.09
28626;BME280;18905;42.668;23.364;2024-03-06T01:17:39;94918.88;;;5.92;73.15
28626;BME280;18905;42.668;23.364;2024-03-06T01:20:05;94920.59;;;6.02;73.64
28626;BME280;18905;42.668;23.364;2024-03-06T01:22:34;94922.88;;;6.08;72.96
28626;BME280;18905;42.668;23.364;2024-03-06T01:25:00;94923.09;;;6.12;72.95
28626;BME280;18905;42.668;23.364;2024-03-06T01:27:26;94918.75;;;6.12;72.79
28626;BME280;18905;42.668;23.364;2024-03-06T01:29:51;94912.84;;;6.17;72.52
28626;BME280;18905;42.668;23.364;2024-03-06T01:32:17;94906.75;;;6.08;71.35
28626;BME280;18905;42.668;23.364;2024-03-06T01:34:42;94920.41;;;5.88;72.84
28626;BME280;18905;42.668;23.364;2024-03-06T01:37:07;94909.75;;;5.71;73.23
28626;BME280;18905;42.668;23.364;2024-03-06T01:39:33;94922.81;;;5.64;74.19
28626;BME280;18905;42.668;23.364;2024-03-06T01:42:01;94915.41;;;5.63;74.17
28626;BME280;18905;42.668;23.364;2024-03-06T01:44:26;94922.56;;;5.61;73.59
28626;BME280;18905;42.668;23.364;2024-03-06T01:46:52;94918.81;;;5.38;74.74
28626;BME280;18905;42.668;23.364;2024-03-06T01:49:18;94915.53;;;5.23;74.38
28626;BME280;18905;42.668;23.364;2024-03-06T01:51:49;94911.53;;;5.01;76.39
28626;BME280;18905;42.668;23.364;2024-03-06T01:54:16;94924.59;;;4.75;76.46
28626;BME280;18905;42.668;23.364;2024-03-06T01:56:45;94911.84;;;4.55;76.90
28626;BME280;18905;42.668;23.364;2024-03-06T01:59:15;94910.59;;;4.52;76.96
28626;BME280;18905;42.668;23.364;2024-03-06T02:01:42;94923.06;;;4.33;77.79
28626;BME280;18905;42.668;23.364;2024-03-06T02:04:08;94922.03;;;4.34;78.78
28626;BME280;18905;42.668;23.364;2024-03-06T02:06:40;94922.03;;;4.40;78.15
28626;BME280;18905;42.668;23.364;2024-03-06T02:09:06;94921.25;;;3.99;78.69
28626;BME280;18905;42.668;23.364;2024-03-06T02:11:35;94928.88;;;3.94;79.26
28626;BME280;18905;42.668;23.364;2024-03-06T02:14:01;94937.28;;;3.89;80.16
28626;BME280;18905;42.668;23.364;2024-03-06T02:16:28;94938.28;;;3.83;80.11
28626;BME280;18905;42.668;23.364;2024-03-06T02:18:54;94936.53;;;3.89;79.81
28626;BME280;18905;42.668;23.364;2024-03-06T02:21:24;94930.38;;;3.80;79.75
28626;BME280;18905;42.668;23.364;2024-03-06T02:23:50;94942.31;;;3.64;80.31
28626;BME280;18905;42.668;23.364;2024-03-06T02:26:20;94945.88;;;3.63;80.00
28626;BME280;18905;42.668;23.364;2024-03-06T02:28:54;94952.81;;;3.78;80.45
28626;BME280;18905;42.668;23.364;2024-03-06T02:31:20;94951.75;;;3.69;79.78
28626;BME280;18905;42.668;23.364;2024-03-06T02:33:47;94953.03;;;3.66;79.44
28626;BME280;18905;42.668;23.364;2024-03-06T02:36:13;94954.19;;;3.48;80.85
28626;BME280;18905;42.668;23.364;2024-03-06T02:38:39;94958.56;;;3.58;80.67
28626;BME280;18905;42.668;23.364;2024-03-06T02:41:05;94946.63;;;3.58;79.65
28626;BME280;18905;42.668;23.364;2024-03-06T02:43:34;94956.31;;;3.61;79.47
28626;BME280;18905;42.668;23.364;2024-03-06T02:46:00;94958.84;;;3.56;80.63
28626;BME280;18905;42.668;23.364;2024-03-06T02:48:25;94950.06;;;3.37;80.46
28626;BME280;18905;42.668;23.364;2024-03-06T02:50:51;94950.53;;;3.24;81.92
28626;BME280;18905;42.668;23.364;2024-03-06T02:53:16;94948.56;;;3.36;80.86
28626;BME280;18905;42.668;23.364;2024-03-06T02:55:42;94943.38;;;3.21;81.47
28626;BME280;18905;42.668;23.364;2024-03-06T02:58:07;94940.28;;;3.09;82.08
28626;BME280;18905;42.668;23.364;2024-03-06T03:00:32;94953.78;;;3.10;82.02
28626;BME280;18905;42.668;23.364;2024-03-06T03:02:58;94950.94;;;3.06;82.20
28626;BME280;18905;42.668;23.364;2024-03-06T03:05:24;94948.38;;;3.01;81.56
28626;BME280;18905;42.668;23.364;2024-03-06T03:07:50;94953.78;;;3.15;81.75
28626;BME280;18905;42.668;23.364;2024-03-06T03:10:15;94949.94;;;3.12;81.35
28626;BME280;18905;42.668;23.364;2024-03-06T03:12:41;94955.03;;;3.12;81.41
28626;BME280;18905;42.668;23.364;2024-03-06T03:15:07;94959.16;;;3.18;81.26
28626;BME280;18905;42.668;23.364;2024-03-06T03:17:32;94957.09;;;3.15;81.17
28626;BME280;18905;42.668;23.364;2024-03-06T03:19:59;94952.44;;;3.02;81.63
28626;BME280;18905;42.668;23.364;2024-03-06T03:22:24;94955.78;;;3.03;81.68
28626;BME280;18905;42.668;23.364;2024-03-06T03:24:50;94968.28;;;3.09;81.68
28626;BME280;18905;42.668;23.364;2024-03-06T03:27:15;94961.69;;;3.13;81.49
28626;BME280;18905;42.668;23.364;2024-03-06T03:29:40;94955.56;;;3.09;80.92
28626;BME280;18905;42.668;23.364;2024-03-06T03:32:06;94959.19;;;3.23;81.11
28626;BME280;18905;42.668;23.364;2024-03-06T03:34:34;94963.31;;;3.34;79.90
28626;BME280;18905;42.668;23.364;2024-03-06T03:36:59;94966.63;;;3.35;80.25
28626;BME280;18905;42.668;23.364;2024-03-06T03:39:24;94970.19;;;3.34;79.89
28626;BME280;18905;42.668;23.364;2024-03-06T03:41:50;94973.50;;;3.39;79.64
28626;BME280;18905;42.668;23.364;2024-03-06T03:44:17;94978.38;;;3.41;80.14
28626;BME280;18905;42.668;23.364;2024-03-06T03:46:44;94967.44;;;3.45;80.31
28626;BME280;18905;42.668;23.364;2024-03-06T03:49:10;94965.69;;;3.46;80.15
28626;BME280;18905;42.668;23.364;2024-03-06T03:51:37;94973.34;;;3.56;79.33
28626;BME280;18905;42.668;23.364;2024-03-06T03:54:03;94963.31;;;3.39;79.11
28626;BME280;18905;42.668;23.364;2024-03-06T03:56:29;94972.78;;;3.44;79.43
28626;BME280;18905;42.668;23.364;2024-03-06T03:58:56;94965.66;;;3.41;79.36
28626;BME280;18905;42.668;23.364;2024-03-06T04:01:22;94968.72;;;3.43;79.09
28626;BME280;18905;42.668;23.364;2024-03-06T04:03:48;94980.22;;;3.50;79.45
28626;BME280;18905;42.668;23.364;2024-03-06T04:06:14;94980.72;;;3.57;78.85
28626;BME280;18905;42.668;23.364;2024-03-06T04:08:39;94987.16;;;3.65;78.14
28626;BME280;18905;42.668;23.364;2024-03-06T04:11:06;94982.34;;;3.69;78.15
28626;BME280;18905;42.668;23.364;2024-03-06T04:13:35;94979.78;;;3.74;77.97
28626;BME280;18905;42.668;23.364;2024-03-06T04:16:01;94989.22;;;3.78;78.30
28626;BME280;18905;42.668;23.364;2024-03-06T04:18:27;94990.78;;;3.79;78.37
28626;BME280;18905;42.668;23.364;2024-03-06T04:20:53;94992.56;;;3.84;77.57
28626;BME280;18905;42.668;23.364;2024-03-06T04:23:18;95002.00;;;3.88;77.08
28626;BME280;18905;42.668;23.364;2024-03-06T04:25:43;95002.81;;;3.99;77.18
28626;BME280;18905;42.668;23.364;2024-03-06T04:28:09;95008.94;;;3.98;76.93
28626;BME280;18905;42.668;23.364;2024-03-06T04:30:35;95008.94;;;3.98;77.55
28626;BME280;18905;42.668;23.364;2024-03-06T04:33:00;95008.94;;;4.08;77.44
28626;BME280;18905;42.668;23.364;2024-03-06T04:35:26;95009.00;;;4.28;75.80
28626;BME280;18905;42.668;23.364;2024-03-06T04:37:51;95012.84;;;4.35;75.01
28626;BME280;18905;42.668;23.364;2024-03-06T04:40:17;95007.47;;;4.27;75.81
28626;BME280;18905;42.668;23.364;2024-03-06T04:42:46;94998.31;;;4.31;74.85
28626;BME280;18905;42.668;23.364;2024-03-06T04:45:15;95009.03;;;4.38;74.57
28626;BME280;18905;42.668;23.364;2024-03-06T04:47:41;95010.53;;;4.24;74.50
28626;BME280;18905;42.668;23.364;2024-03-06T04:50:10;95017.59;;;4.02;74.86
28626;BME280;18905;42.668;23.364;2024-03-06T04:52:36;95019.59;;;3.90;76.06
28626;BME280;18905;42.668;23.364;2024-03-06T04:55:02;95019.59;;;3.90;75.76
28626;BME280;18905;42.668;23.364;2024-03-06T04:57:28;95019.34;;;3.91;76.04
28626;BME280;18905;42.668;23.364;2024-03-06T04:59:53;95028.59;;;4.02;76.31
28626;BME280;18905;42.668;23.364;2024-03-06T05:02:19;95012.63;;;4.52;87.48
28626;BME280;18905;42.668;23.364;2024-03-06T05:04:44;95030.00;;;4.70;82.84
28626;BME280;18905;42.668;23.364;2024-03-06T05:07:09;95023.84;;;4.66;74.25
28626;BME280;18905;42.668;23.364;2024-03-06T05:09:35;95029.47;;;4.93;78.54
28626;BME280;18905;42.668;23.364;2024-03-06T05:12:01;95023.31;;;5.30;77.82
28626;BME280;18905;42.668;23.364;2024-03-06T05:14:26;95028.06;;;5.81;74.34
28626;BME280;18905;42.668;23.364;2024-03-06T05:16:51;95032.63;;;6.00;70.11
28626;BME280;18905;42.668;23.364;2024-03-06T05:19:18;95031.53;;;6.11;68.46
28626;BME280;18905;42.668;23.364;2024-03-06T05:21:43;95029.25;;;6.14;68.17
28626;BME280;18905;42.668;23.364;2024-03-06T05:24:09;95026.16;;;6.17;68.04
28626;BME280;18905;42.668;23.364;2024-03-06T05:26:34;95032.78;;;6.23;67.31
28626;BME280;18905;42.668;23.364;2024-03-06T05:29:00;95025.59;;;6.25;67.48
28626;BME280;18905;42.668;23.364;2024-03-06T05:31:25;95037.31;;;6.36;67.76
28626;BME280;18905;42.668;23.364;2024-03-06T05:33:51;95040.91;;;6.35;69.85
28626;BME280;18905;42.668;23.364;2024-03-06T05:36:16;95043.09;;;6.52;68.87
28626;BME280;18905;42.668;23.364;2024-03-06T05:38:43;95039.66;;;6.28;67.29
28626;BME280;18905;42.668;23.364;2024-03-06T05:41:08;95053.38;;;5.83;69.34
28626;BME280;18905;42.668;23.364;2024-03-06T05:43:34;95062.16;;;5.47;70.21
28626;BME280;18905;42.668;23.364;2024-03-06T05:45:59;95062.16;;;5.12;72.17
28626;BME280;18905;42.668;23.364;2024-03-06T05:48:26;95063.19;;;5.21;71.22
28626;BME280;18905;42.668;23.364;2024-03-06T05:50:52;95057.56;;;4.78;73.55
28626;BME280;18905;42.668;23.364;2024-03-06T05:53:17;95053.22;;;4.79;75.08
28626;BME280;18905;42.668;23.364;2024-03-06T05:55:43;95062.13;;;4.66;74.71
28626;BME280;18905;42.668;23.364;2024-03-06T05:58:08;95067.53;;;4.75;75.55
28626;BME280;18905;42.668;23.364;2024-03-06T06:00:34;95073.91;;;4.82;75.23
28626;BME280;18905;42.668;23.364;2024-03-06T06:03:00;95069.06;;;4.96;73.78
28626;BME280;18905;42.668;23.364;2024-03-06T06:05:25;95065.72;;;4.95;73.55
28626;BME280;18905;42.668;23.364;2024-03-06T06:07:51;95069.06;;;4.81;74.76
28626;BME280;18905;42.668;23.364;2024-03-06T06:10:16;95077.50;;;4.96;73.72
28626;BME280;18905;42.668;23.364;2024-03-06T06:12:42;95070.31;;;4.93;72.97
28626;BME280;18905;42.668;23.364;2024-03-06T06:15:08;95071.31;;;4.77;73.46
28626;BME280;18905;42.668;23.364;2024-03-06T06:17:34;95078.75;;;4.79;73.57
28626;BME280;18905;42.668;23.364;2024-03-06T06:20:00;95073.88;;;4.67;74.65
28626;BME280;18905;42.668;23.364;2024-03-06T06:22:28;95074.38;;;4.54;75.21
28626;BME280;18905;42.668;23.364;2024-03-06T06:24:54;95075.16;;;4.80;74.43
28626;BME280;18905;42.668;23.364;2024-03-06T06:27:21;95068.03;;;4.92;74.06
28626;BME280;18905;42.668;23.364;2024-03-06T06:29:46;95069.06;;;5.16;73.45
28626;BME280;18905;42.668;23.364;2024-03-06T06:32:14;95048.09;;;5.29;72.54
28626;BME280;18905;42.668;23.364;2024-03-06T06:34:40;95068.19;;;5.91;70.11
28626;BME280;18905;42.668;23.364;2024-03-06T06:37:05;95073.50;;;6.10;68.92
28626;BME280;18905;42.668;23.364;2024-03-06T06:39:30;95072.94;;;6.23;69.35
28626;BME280;18905;42.668;23.364;2024-03-06T06:41:58;95061.91;;;6.27;69.17
28626;BME280;18905;42.668;23.364;2024-03-06T06:44:23;95066.72;;;6.39;68.71
28626;BME280;18905;42.668;23.364;2024-03-06T06:46:49;95066.34;;;6.61;67.37
28626;BME280;18905;42.668;23.364;2024-03-06T06:49:14;95066.50;;;6.79;66.63
28626;BME280;18905;42.668;23.364;2024-03-06T06:51:40;95068.28;;;6.79;67.23
28626;BME280;18905;42.668;23.364;2024-03-06T06:54:05;95070.75;;;6.94;66.36
28626;BME280;18905;42.668;23.364;2024-03-06T06:56:31;95078.59;;;7.41;64.38
28626;BME280;18905;42.668;23.364;2024-03-06T06:58:56;95082.22;;;7.64;63.73
28626;BME280;18905;42.668;23.364;2024-03-06T07:01:22;95070.91;;;7.93;62.02
28626;BME280;18905;42.668;23.364;2024-03-06T07:03:47;95081.66;;;8.43;60.65
28626;BME280;18905;42.668;23.364;2024-03-06T07:06:13;95082.88;;;8.22;62.09
28626;BME280;18905;42.668;23.364;2024-03-06T07:08:38;95085.19;;;8.47;61.27
28626;BME280;18905;42.668;23.364;2024-03-06T07:11:04;95087.91;;;8.74;59.75
28626;BME280;18905;42.668;23.364;2024-03-06T07:13:30;95083.97;;;9.14;58.98
28626;BME280;18905;42.668;23.364;2024-03-06T07:15:56;95089.72;;;9.57;57.63
28626;BME280;18905;42.668;23.364;2024-03-06T07:18:21;95085.97;;;9.68;57.22
28626;BME280;18905;42.668;23.364;2024-03-06T07:20:46;95083.13;;;9.37;58.46
28626;BME280;18905;42.668;23.364;2024-03-06T07:23:12;95081.22;;;9.43;58.26
28626;BME280;18905;42.668;23.364;2024-03-06T07:25:38;95078.16;;;9.27;58.38
28626;BME280;18905;42.668;23.364;2024-03-06T07:28:03;95088.31;;;9.64;57.14
28626;BME280;18905;42.668;23.364;2024-03-06T07:30:29;95088.03;;;9.20;58.49
28626;BME280;18905;42.668;23.364;2024-03-06T07:32:55;95085.38;;;9.38;57.89
28626;BME280;18905;42.668;23.364;2024-03-06T07:35:22;95082.53;;;9.26;58.63
28626;BME280;18905;42.668;23.364;2024-03-06T07:37:48;95080.66;;;9.13;58.58
28626;BME280;18905;42.668;23.364;2024-03-06T07:40:13;95075.53;;;9.13;58.41
28626;BME280;18905;42.668;23.364;2024-03-06T07:42:39;95084.06;;;9.41;57.71
28626;BME280;18905;42.668;23.364;2024-03-06T07:45:05;95078.03;;;9.64;58.00
28626;BME280;18905;42.668;23.364;2024-03-06T07:47:32;95071.53;;;9.53;58.15
28626;BME280;18905;42.668;23.364;2024-03-06T07:49:57;95078.53;;;9.34;58.83
28626;BME280;18905;42.668;23.364;2024-03-06T07:52:25;95083.22;;;9.46;57.92
28626;BME280;18905;42.668;23.364;2024-03-06T07:54:50;95080.22;;;9.25;59.26
28626;BME280;18905;42.668;23.364;2024-03-06T07:57:16;95076.56;;;9.45;58.47
28626;BME280;18905;42.668;23.364;2024-03-06T07:59:43;95080.34;;;9.93;56.86
28626;BME280;18905;42.668;23.364;2024-03-06T08:02:08;95080.97;;;10.17;56.17
28626;BME280;18905;42.668;23.364;2024-03-06T08:04:33;95074.81;;;10.40;55.84
28626;BME280;18905;42.668;23.364;2024-03-06T08:07:00;95085.50;;;10.47;55.47
28626;BME280;18905;42.668;23.364;2024-03-06T08:09:25;95081.59;;;10.09;56.26
28626;BME280;18905;42.668;23.364;2024-03-06T08:11:53;95085.63;;;10.15;56.31
28626;BME280;18905;42.668;23.364;2024-03-06T08:14:19;95087.38;;;9.60;58.17
28626;BME280;18905;42.668;23.364;2024-03-06T08:16:45;95086.72;;;9.82;57.25
28626;BME280;18905;42.668;23.364;2024-03-06T08:19:11;95086.63;;;9.87;57.26
28626;BME280;18905;42.668;23.364;2024-03-06T08:21:37;95086.88;;;10.31;56.70
28626;BME280;18905;42.668;23.364;2024-03-06T08:24:02;95084.03;;;10.68;55.49
28626;BME280;18905;42.668;23.364;2024-03-06T08:26:27;95080.03;;;10.98;53.91
28626;BME280;18905;42.668;23.364;2024-03-06T08:28:53;95074.78;;;11.03;53.19
28626;BME280;18905;42.668;23.364;2024-03-06T08:31:18;95070.44;;;11.65;52.15
28626;BME280;18905;42.668;23.364;2024-03-06T08:33:44;95065.75;;;12.46;50.56
28626;BME280;18905;42.668;23.364;2024-03-06T08:36:09;95070.66;;;12.90;48.42
28626;BME280;18905;42.668;23.364;2024-03-06T08:38:35;95076.44;;;12.78;48.59
28626;BME280;18905;42.668;23.364;2024-03-06T08:41:00;95073.56;;;12.97;48.29
28626;BME280;18905;42.668;23.364;2024-03-06T08:43:26;95069.28;;;12.84;48.03
28626;BME280;18905;42.668;23.364;2024-03-06T08:45:51;95078.13;;;13.00;47.69
28626;BME280;18905;42.668;23.364;2024-03-06T08:48:17;95079.59;;;12.58;49.26
28626;BME280;18905;42.668;23.364;2024-03-06T08:50:43;95073.38;;;12.68;48.60
28626;BME280;18905;42.668;23.364;2024-03-06T08:53:08;95075.94;;;12.51;49.30
28626;BME280;18905;42.668;23.364;2024-03-06T08:55:34;95075.06;;;12.64;48.68
28626;BME280;18905;42.668;23.364;2024-03-06T08:58:00;95065.25;;;11.87;51.20
28626;BME280;18905;42.668;23.364;2024-03-06T09:00:26;95074.13;;;12.60;48.86
28626;BME280;18905;42.668;23.364;2024-03-06T09:02:52;95072.09;;;12.31;49.85
28626;BME280;18905;42.668;23.364;2024-03-06T09:05:18;95075.19;;;12.59;50.15
28626;BME280;18905;42.668;23.364;2024-03-06T09:07:43;95074.34;;;11.54;51.21
28626;BME280;18905;42.668;23.364;2024-03-06T09:10:10;95063.66;;;12.00;50.34
28626;BME280;18905;42.668;23.364;2024-03-06T09:12:36;95078.06;;;12.49;48.81
28626;BME280;18905;42.668;23.364;2024-03-06T09:15:02;95072.16;;;12.57;48.61
28626;BME280;18905;42.668;23.364;2024-03-06T09:17:28;95078.69;;;12.63;49.54
28626;BME280;18905;42.668;23.364;2024-03-06T09:19:54;95072.09;;;13.77;46.70
28626;BME280;18905;42.668;23.364;2024-03-06T09:22:20;95071.88;;;13.35;46.40
28626;BME280;18905;42.668;23.364;2024-03-06T09:24:45;95070.31;;;13.60;47.14
28626;BME280;18905;42.668;23.364;2024-03-06T09:27:12;95074.66;;;13.85;45.52
28626;BME280;18905;42.668;23.364;2024-03-06T09:29:39;95065.16;;;14.27;44.71
28626;BME280;18905;42.668;23.364;2024-03-06T09:32:04;95067.41;;;14.08;45.65
28626;BME280;18905;42.668;23.364;2024-03-06T09:34:30;95063.78;;;13.54;46.12
28626;BME280;18905;42.668;23.364;2024-03-06T09:36:55;95068.50;;;14.65;43.72
28626;BME280;18905;42.668;23.364;2024-03-06T09:39:20;95064.28;;;14.52;43.77
28626;BME280;18905;42.668;23.364;2024-03-06T09:41:48;95061.75;;;15.59;41.34
28626;BME280;18905;42.668;23.364;2024-03-06T09:44:14;95047.84;;;15.43;40.26
28626;BME280;18905;42.668;23.364;2024-03-06T09:46:49;95043.63;;;15.71;40.44
28626;BME280;18905;42.668;23.364;2024-03-06T09:49:16;95051.19;;;15.43;40.12
28626;BME280;18905;42.668;23.364;2024-03-06T09:51:43;95049.25;;;15.07;41.81
28626;BME280;18905;42.668;23.364;2024-03-06T09:54:13;95046.91;;;14.94;41.97
28626;BME280;18905;42.668;23.364;2024-03-06T09:56:41;95048.44;;;15.60;40.65
28626;BME280;18905;42.668;23.364;2024-03-06T09:59:07;95038.34;;;14.52;40.62
28626;BME280;18905;42.668;23.364;2024-03-06T10:01:33;95037.38;;;15.19;39.37
28626;BME280;18905;42.668;23.364;2024-03-06T10:03:59;95031.22;;;15.44;39.24
28626;BME280;18905;42.668;23.364;2024-03-06T10:06:43;95033.94;;;15.27;40.22
28626;BME280;18905;42.668;23.364;2024-03-06T10:09:10;95035.31;;;15.45;38.60
28626;BME280;18905;42.668;23.364;2024-03-06T10:11:39;95028.31;;;15.25;39.56
28626;BME280;18905;42.668;23.364;2024-03-06T10:14:05;95025.00;;;15.03;40.52
28626;BME280;18905;42.668;23.364;2024-03-06T10:16:30;95022.66;;;15.11;40.46
28626;BME280;18905;42.668;23.364;2024-03-06T10:18:56;95012.78;;;15.37;39.20
28626;BME280;18905;42.668;23.364;2024-03-06T10:21:31;95028.03;;;15.71;38.96
28626;BME280;18905;42.668;23.364;2024-03-06T10:23:57;95009.72;;;14.90;39.56
28626;BME280;18905;42.668;23.364;2024-03-06T10:26:24;95012.44;;;14.52;39.77
28626;BME280;18905;42.668;23.364;2024-03-06T10:28:50;95020.94;;;14.32;40.33
28626;BME280;18905;42.668;23.364;2024-03-06T10:31:26;95002.25;;;13.89;40.87
28626;BME280;18905;42.668;23.364;2024-03-06T10:33:51;94994.94;;;13.91;41.30
28626;BME280;18905;42.668;23.364;2024-03-06T10:36:18;94997.38;;;14.66;39.54
28626;BME280;18905;42.668;23.364;2024-03-06T10:38:44;94976.78;;;15.02;38.21
28626;BME280;18905;42.668;23.364;2024-03-06T10:41:14;94994.69;;;15.28;38.21
28626;BME280;18905;42.668;23.364;2024-03-06T10:43:42;94990.47;;;15.81;37.21
28626;BME280;18905;42.668;23.364;2024-03-06T10:46:10;94991.63;;;16.19;36.95
28626;BME280;18905;42.668;23.364;2024-03-06T10:48:36;94980.81;;;15.57;36.97
28626;BME280;18905;42.668;23.364;2024-03-06T10:51:03;94977.13;;;16.06;37.27
28626;BME280;18905;42.668;23.364;2024-03-06T10:53:31;94974.75;;;16.25;37.38
28626;BME280;18905;42.668;23.364;2024-03-06T10:55:58;94975.31;;;16.71;35.93
28626;BME280;18905;42.668;23.364;2024-03-06T10:58:25;94973.19;;;16.48;35.94
28626;BME280;18905;42.668;23.364;2024-03-06T11:00:51;94958.03;;;16.26;36.58
28626;BME280;18905;42.668;23.364;2024-03-06T11:03:17;94960.13;;;16.73;35.22
28626;BME280;18905;42.668;23.364;2024-03-06T11:05:44;94957.06;;;16.31;35.57
28626;BME280;18905;42.668;23.364;2024-03-06T11:08:13;94959.72;;;17.14;34.73
28626;BME280;18905;42.668;23.364;2024-03-06T11:10:40;94953.66;;;16.42;35.16
28626;BME280;18905;42.668;23.364;2024-03-06T11:13:25;94949.03;;;16.24;35.75
28626;BME280;18905;42.668;23.364;2024-03-06T11:15:58;94947.31;;;16.80;33.96
28626;BME280;18905;42.668;23.364;2024-03-06T11:23:28;94924.19;;;15.26;36.38
28626;BME280;18905;42.668;23.364;2024-03-06T11:28:22;94933.34;;;15.12;36.81
28626;BME280;18905;42.668;23.364;2024-03-06T11:30:55;94923.97;;;14.54;38.00
28626;BME280;18905;42.668;23.364;2024-03-06T11:33:23;94925.75;;;15.06;36.69
28626;BME280;18905;42.668;23.364;2024-03-06T11:36:17;94916.25;;;15.11;36.78
28626;BME280;18905;42.668;23.364;2024-03-06T11:39:15;94914.97;;;16.13;35.43
28626;BME280;18905;42.668;23.364;2024-03-06T11:41:50;94912.84;;;15.79;35.29
28626;BME280;18905;42.668;23.364;2024-03-06T11:44:20;94909.47;;;15.30;36.42
28626;BME280;18905;42.668;23.364;2024-03-06T11:46:56;94915.34;;;15.75;35.56
28626;BME280;18905;42.668;23.364;2024-03-06T11:49:22;94913.88;;;16.14;35.04
28626;BME280;18905;42.668;23.364;2024-03-06T11:51:57;94894.63;;;15.19;36.03
28626;BME280;18905;42.668;23.364;2024-03-06T11:54:23;94903.09;;;15.88;35.03
28626;BME280;18905;42.668;23.364;2024-03-06T11:56:52;94899.38;;;16.13;34.82
28626;BME280;18905;42.668;23.364;2024-03-06T11:59:39;94901.75;;;16.18;34.88
28626;BME280;18905;42.668;23.364;2024-03-06T12:02:05;94891.06;;;16.35;34.09
28626;BME280;18905;42.668;23.364;2024-03-06T12:04:31;94888.38;;;15.68;35.40
28626;BME280;18905;42.668;23.364;2024-03-06T12:06:59;94892.91;;;15.83;35.12
28626;BME280;18905;42.668;23.364;2024-03-06T12:09:25;94892.41;;;15.77;35.16
28626;BME280;18905;42.668;23.364;2024-03-06T12:11:50;94886.13;;;15.66;34.68
28626;BME280;18905;42.668;23.364;2024-03-06T12:14:22;94877.78;;;15.37;35.19
28626;BME280;18905;42.668;23.364;2024-03-06T12:16:59;94880.38;;;15.73;34.95
28626;BME280;18905;42.668;23.364;2024-03-06T12:19:31;94879.97;;;15.59;34.98
28626;BME280;18905;42.668;23.364;2024-03-06T12:21:59;94880.69;;;15.35;35.37
28626;BME280;18905;42.668;23.364;2024-03-06T12:24:25;94878.13;;;14.90;35.75
28626;BME280;18905;42.668;23.364;2024-03-06T12:27:03;94878.13;;;14.90;36.34
28626;BME280;18905;42.668;23.364;2024-03-06T12:29:30;94879.94;;;15.11;36.11
28626;BME280;18905;42.668;23.364;2024-03-06T12:31:57;94871.47;;;15.14;36.17
28626;BME280;18905;42.668;23.364;2024-03-06T12:34:23;94870.63;;;15.22;35.48
28626;BME280;18905;42.668;23.364;2024-03-06T12:36:48;94866.75;;;15.40;35.45
28626;BME280;18905;42.668;23.364;2024-03-06T12:39:15;94865.63;;;15.04;35.96
28626;BME280;18905;42.668;23.364;2024-03-06T12:41:43;94870.25;;;14.87;35.86
28626;BME280;18905;42.668;23.364;2024-03-06T12:44:09;94858.53;;;14.69;37.97
28626;BME280;18905;42.668;23.364;2024-03-06T12:46:34;94863.72;;;13.74;43.58
28626;BME280;18905;42.668;23.364;2024-03-06T12:49:00;94858.00;;;13.31;45.83
28626;BME280;18905;42.668;23.364;2024-03-06T12:51:26;94868.25;;;13.19;45.95
28626;BME280;18905;42.668;23.364;2024-03-06T12:53:51;94866.97;;;12.87;46.46
28626;BME280;18905;42.668;23.364;2024-03-06T12:56:18;94883.44;;;12.74;47.60
28626;BME280;18905;42.668;23.364;2024-03-06T12:58:44;94868.00;;;12.48;48.06
28626;BME280;18905;42.668;23.364;2024-03-06T13:01:09;94873.59;;;12.42;48.47
28626;BME280;18905;42.668;23.364;2024-03-06T13:03:36;94883.78;;;12.64;47.72